Saint-Andre-Avellin, Canada
Current Conditions -  °F | °C
As of 9:00 AM on Thursday 27 Nov 2014 (Local Time) from CYND Reporting Station
Broken Clouds Broken Clouds  
Wind Chill: 19°   Ceiling: 3200
Heat Index: 25°   Visibility: 15mi
Dew Point: 18°   Wind: 5mph
Humidity: 74%   Direction: 300°WNW
Pressure: 30.07"   Gusts: NA
Location:  45.72°N, 75.05°W
Report Text: CYND 271400Z 30004KT 260V330 15SM BKN032 M04/M08 A3007 RMK SC7 SLP187
Loading
Personal Weather Stations






























Interactive Weather Map New forecast layout! Learn more

10-Day Weather Forecast

Advertisements
Track Severe Weather on mobile